createdAt,value
2023-02-28T00:00:12.973Z,101776.69
2023-02-28T00:02:43.158Z,101761.50
2023-02-28T00:05:10.216Z,101765.09
2023-02-28T00:07:37.098Z,101763.94
2023-02-28T00:10:04.842Z,101769.91
2023-02-28T00:12:31.369Z,101778.97
2023-02-28T00:14:57.952Z,101771.69
2023-02-28T00:17:24.703Z,101770.38
2023-02-28T00:19:52.013Z,101764.44
2023-02-28T00:22:19.911Z,101764.78
2023-02-28T00:24:46.638Z,101774.03
2023-02-28T00:27:13.124Z,101769.72
2023-02-28T00:29:39.912Z,101769.38
2023-02-28T00:32:07.175Z,101767.03
2023-02-28T00:34:38.686Z,101757.81
2023-02-28T00:37:09.912Z,101757.00
2023-02-28T00:39:37.335Z,101762.28
2023-02-28T00:42:04.811Z,101760.59
2023-02-28T00:44:32.272Z,101763.75
2023-02-28T00:46:59.898Z,101770.34
2023-02-28T00:49:27.774Z,101759.13
2023-02-28T00:51:54.997Z,101769.66
2023-02-28T00:54:22.220Z,101772.94
2023-02-28T00:56:49.040Z,101775.91
2023-02-28T00:59:16.529Z,101776.56
2023-02-28T01:01:43.724Z,101778.19
2023-02-28T01:04:10.477Z,101773.25
2023-02-28T01:06:37.219Z,101771.72
2023-02-28T01:09:04.977Z,101771.56
2023-02-28T01:11:31.641Z,101765.78
2023-02-28T01:13:58.238Z,101764.97
2023-02-28T01:16:25.236Z,101763.00
2023-02-28T01:18:51.751Z,101765.47
2023-02-28T01:21:19.551Z,101764.81
2023-02-28T01:23:46.640Z,101766.41
2023-02-28T01:26:14.898Z,101767.41
2023-02-28T01:28:42.105Z,101761.66
2023-02-28T01:31:09.198Z,101768.25
2023-02-28T01:33:38.338Z,101765.47
2023-02-28T01:36:10.881Z,101762.69
2023-02-28T01:38:37.502Z,101761.34
2023-02-28T01:41:04.822Z,101757.56
2023-02-28T01:43:54.107Z,101761.03
2023-02-28T01:46:20.624Z,101762.00
2023-02-28T01:48:57.307Z,101752.69
2023-02-28T01:51:32.613Z,101760.56
2023-02-28T01:54:14.706Z,101757.75
2023-02-28T01:56:44.941Z,101751.63
2023-02-28T01:59:13.658Z,101757.34
2023-02-28T02:01:40.310Z,101755.84
2023-02-28T02:04:06.876Z,101756.19
2023-02-28T02:06:43.310Z,101755.13
2023-02-28T02:09:10.587Z,101749.56
2023-02-28T02:11:38.453Z,101744.81
2023-02-28T02:14:11.220Z,101741.19
2023-02-28T02:16:47.537Z,101746.34
2023-02-28T02:19:17.090Z,101743.66
2023-02-28T02:22:13.037Z,101745.88
2023-02-28T02:24:52.538Z,101737.78
2023-02-28T02:27:19.298Z,101737.28
2023-02-28T02:29:57.838Z,101732.19
2023-02-28T02:32:43.545Z,101735.00
2023-02-28T02:35:22.014Z,101736.94
2023-02-28T02:37:48.540Z,101731.34
2023-02-28T02:40:18.271Z,101732.16
2023-02-28T02:42:51.808Z,101743.16
2023-02-28T02:45:28.250Z,101733.91
2023-02-28T02:47:57.333Z,101739.84
2023-02-28T02:50:27.092Z,101743.47
2023-02-28T02:52:56.925Z,101733.91
2023-02-28T02:55:24.211Z,101738.50
2023-02-28T02:57:53.922Z,101737.78
2023-02-28T03:00:23.915Z,101735.63
2023-02-28T03:02:53.643Z,101731.47
2023-02-28T03:05:22.590Z,101737.03
2023-02-28T03:07:49.152Z,101733.69
2023-02-28T03:10:34.477Z,101728.56
2023-02-28T03:13:08.645Z,101732.31
2023-02-28T03:15:45.715Z,101727.53
2023-02-28T03:18:20.755Z,101725.34
2023-02-28T03:20:55.257Z,101721.19
2023-02-28T03:23:24.543Z,101729.25
2023-02-28T03:25:51.020Z,101723.00
2023-02-28T03:28:38.544Z,101723.00
2023-02-28T03:31:13.461Z,101721.50
2023-02-28T03:33:43.012Z,101726.63
2023-02-28T03:36:13.551Z,101732.88
2023-02-28T03:38:45.381Z,101723.31
2023-02-28T03:41:17.732Z,101726.25
2023-02-28T03:43:48.551Z,101728.66
2023-02-28T03:46:19.229Z,101732.44
2023-02-28T03:48:50.015Z,101725.50
2023-02-28T03:51:19.292Z,101734.53
2023-02-28T03:53:49.006Z,101727.44
2023-02-28T03:56:28.213Z,101728.81
2023-02-28T03:58:58.213Z,101731.28
2023-02-28T04:01:28.522Z,101730.84
2023-02-28T04:03:55.429Z,101727.09
2023-02-28T04:06:22.956Z,101724.88
2023-02-28T04:08:49.701Z,101723.94
2023-02-28T04:11:22.433Z,101723.25
2023-02-28T04:13:49.326Z,101729.34
2023-02-28T04:16:32.176Z,101725.22
2023-02-28T04:19:03.773Z,101730.75
2023-02-28T04:21:31.377Z,101716.09
2023-02-28T04:24:01.449Z,101721.50
2023-02-28T04:26:37.200Z,101724.13
2023-02-28T04:29:04.854Z,101728.28
2023-02-28T04:31:33.054Z,101718.28
2023-02-28T04:33:59.799Z,101722.56
2023-02-28T04:36:26.349Z,101723.53
2023-02-28T04:39:06.632Z,101728.19
2023-02-28T04:41:46.003Z,101718.34
2023-02-28T04:44:22.488Z,101716.78
2023-02-28T04:46:49.921Z,101719.69
2023-02-28T04:49:16.813Z,101721.16
2023-02-28T04:51:45.743Z,101727.53
2023-02-28T04:54:12.638Z,101722.94
2023-02-28T04:56:41.243Z,101725.09
2023-02-28T04:59:07.731Z,101721.19
2023-02-28T05:01:34.894Z,101720.97
2023-02-28T05:04:02.795Z,101724.88
2023-02-28T05:06:30.096Z,101733.78
2023-02-28T05:08:57.453Z,101738.22
2023-02-28T05:11:25.435Z,101735.34
2023-02-28T05:13:53.232Z,101731.81
2023-02-28T05:16:20.277Z,101729.94
2023-02-28T05:18:47.021Z,101735.56
2023-02-28T05:21:24.831Z,101735.78
2023-02-28T05:23:51.622Z,101739.25
2023-02-28T05:26:18.168Z,101735.38
2023-02-28T05:28:44.635Z,101731.47
2023-02-28T05:31:14.599Z,101735.81
2023-02-28T05:33:41.221Z,101741.16
2023-02-28T05:36:07.912Z,101735.19
2023-02-28T05:38:34.446Z,101735.41
2023-02-28T05:41:00.949Z,101739.34
2023-02-28T05:43:27.496Z,101742.78
2023-02-28T05:45:54.111Z,101737.16
2023-02-28T05:48:20.677Z,101733.97
2023-02-28T05:50:47.242Z,101741.91
2023-02-28T05:53:13.843Z,101744.81
2023-02-28T05:55:42.080Z,101743.97
2023-02-28T05:58:08.703Z,101745.00
2023-02-28T06:00:36.025Z,101740.88
2023-02-28T06:03:03.168Z,101742.78
2023-02-28T06:05:29.756Z,101744.91
2023-02-28T06:07:56.242Z,101746.91
2023-02-28T06:10:23.047Z,101742.78
2023-02-28T06:12:49.548Z,101751.00
2023-02-28T06:15:16.511Z,101755.44
2023-02-28T06:17:44.508Z,101752.31
2023-02-28T06:20:13.764Z,101755.03
2023-02-28T06:22:40.715Z,101753.00
2023-02-28T06:25:07.769Z,101756.56
2023-02-28T06:27:34.535Z,101761.28
2023-02-28T06:30:01.096Z,101764.59
2023-02-28T06:32:27.742Z,101771.09
2023-02-28T06:34:54.341Z,101761.91
2023-02-28T06:37:21.158Z,101763.69
2023-02-28T06:39:47.928Z,101766.56
2023-02-28T06:42:14.699Z,101768.34
2023-02-28T06:44:41.431Z,101769.41
2023-02-28T06:47:07.972Z,101766.31
2023-02-28T06:49:35.243Z,101766.63
2023-02-28T06:52:02.209Z,101766.91
2023-02-28T06:54:28.761Z,101768.72
2023-02-28T06:56:55.477Z,101775.34
2023-02-28T06:59:22.220Z,101771.56
2023-02-28T07:01:48.845Z,101775.63
2023-02-28T07:04:15.567Z,101774.00
2023-02-28T07:06:42.150Z,101783.47
2023-02-28T07:09:09.233Z,101777.75
2023-02-28T07:11:36.011Z,101785.63
2023-02-28T07:14:02.682Z,101786.00
2023-02-28T07:16:29.235Z,101787.16
2023-02-28T07:18:56.218Z,101790.78
2023-02-28T07:21:23.289Z,101791.78
2023-02-28T07:23:49.857Z,101792.81
2023-02-28T07:26:17.939Z,101802.91
2023-02-28T07:28:45.660Z,101801.28
2023-02-28T07:31:12.916Z,101805.81
2023-02-28T07:33:39.652Z,101802.31
2023-02-28T07:36:10.256Z,101797.03
2023-02-28T07:38:38.332Z,101792.41
2023-02-28T07:41:05.340Z,101791.50
2023-02-28T07:43:32.735Z,101791.19
2023-02-28T07:46:03.849Z,101790.88
2023-02-28T07:48:30.510Z,101783.75
2023-02-28T07:50:57.818Z,101788.22
2023-02-28T07:53:24.621Z,101789.53
2023-02-28T07:55:51.256Z,101790.84
2023-02-28T07:58:17.858Z,101793.78
2023-02-28T08:00:44.570Z,101801.03
2023-02-28T08:03:14.449Z,101797.50
2023-02-28T08:05:41.445Z,101797.84
2023-02-28T08:08:08.533Z,101800.22
2023-02-28T08:10:35.330Z,101801.53
2023-02-28T08:13:01.852Z,101796.31
2023-02-28T08:15:28.507Z,101803.56
2023-02-28T08:17:57.238Z,101804.19
2023-02-28T08:20:24.661Z,101804.84
2023-02-28T08:22:51.331Z,101809.16
2023-02-28T08:25:18.072Z,101800.31
2023-02-28T08:27:44.884Z,101801.50
2023-02-28T08:30:12.668Z,101794.69
2023-02-28T08:32:39.685Z,101794.56
2023-02-28T08:35:06.483Z,101793.34
2023-02-28T08:37:33.010Z,101799.38
2023-02-28T08:39:59.630Z,101792.78
2023-02-28T08:42:26.308Z,101790.47
2023-02-28T08:44:52.916Z,101788.97
2023-02-28T08:47:19.972Z,101796.72
2023-02-28T08:49:47.325Z,101798.03
2023-02-28T08:52:13.971Z,101795.59
2023-02-28T08:54:40.565Z,101801.38
2023-02-28T08:57:07.228Z,101797.41
2023-02-28T08:59:33.830Z,101794.47
2023-02-28T09:02:01.523Z,101789.84
2023-02-28T09:04:28.103Z,101795.09
2023-02-28T09:06:54.821Z,101794.41
2023-02-28T09:09:21.432Z,101789.47
2023-02-28T09:11:48.078Z,101794.09
2023-02-28T09:14:14.845Z,101797.06
2023-02-28T09:16:41.542Z,101791.66
2023-02-28T09:19:11.365Z,101786.53
2023-02-28T09:21:37.906Z,101792.25
2023-02-28T09:24:04.621Z,101795.25
2023-02-28T09:26:35.322Z,101783.84
2023-02-28T09:29:10.138Z,101782.59
2023-02-28T09:31:36.795Z,101793.38
2023-02-28T09:34:04.999Z,101794.72
2023-02-28T09:36:43.539Z,101782.16
2023-02-28T09:39:11.755Z,101791.22
2023-02-28T09:41:42.365Z,101784.97
2023-02-28T09:44:13.997Z,101777.59
2023-02-28T09:46:44.088Z,101782.13
2023-02-28T09:49:15.589Z,101787.78
2023-02-28T09:51:56.153Z,101783.59
2023-02-28T09:54:24.016Z,101788.38
2023-02-28T09:56:53.832Z,101782.03
2023-02-28T09:59:32.758Z,101773.06
2023-02-28T10:02:15.004Z,101781.41
2023-02-28T10:04:52.555Z,101786.00
2023-02-28T10:07:38.112Z,101780.34
2023-02-28T10:10:09.878Z,101784.94
2023-02-28T10:12:39.907Z,101779.34
2023-02-28T10:15:06.943Z,101778.81
2023-02-28T10:17:55.635Z,101784.69
2023-02-28T10:20:32.391Z,101770.88
2023-02-28T10:23:11.371Z,101783.81
2023-02-28T10:25:39.341Z,101771.59
2023-02-28T10:28:27.324Z,101755.97
2023-02-28T10:30:55.167Z,101750.69
2023-02-28T10:33:41.541Z,101749.00
2023-02-28T10:36:14.587Z,101747.94
2023-02-28T10:38:41.314Z,101741.00
2023-02-28T10:41:12.843Z,101748.22
2023-02-28T10:43:40.938Z,101748.44
2023-02-28T10:46:10.940Z,101731.25
2023-02-28T10:48:41.722Z,101731.75
2023-02-28T10:51:10.951Z,101734.13
2023-02-28T10:54:01.399Z,101732.28
2023-02-28T10:56:30.040Z,101738.56
2023-02-28T10:59:09.461Z,101734.44
2023-02-28T11:01:39.249Z,101731.31
2023-02-28T11:04:20.628Z,101723.78
2023-02-28T11:06:54.858Z,101724.88
2023-02-28T11:09:28.140Z,101727.63
2023-02-28T11:11:54.934Z,101727.31
2023-02-28T11:14:30.052Z,101721.91
2023-02-28T11:17:00.427Z,101725.69
2023-02-28T11:19:29.965Z,101725.88
2023-02-28T11:22:00.373Z,101720.44
2023-02-28T11:24:29.684Z,101721.75
2023-02-28T11:26:56.637Z,101715.50
2023-02-28T11:29:25.587Z,101725.16
2023-02-28T11:32:03.203Z,101723.28
2023-02-28T11:34:32.669Z,101701.63
2023-02-28T11:37:02.497Z,101715.94
2023-02-28T11:39:30.691Z,101709.34
2023-02-28T11:42:03.874Z,101717.91
2023-02-28T11:44:37.925Z,101716.31
2023-02-28T11:47:15.706Z,101717.13
2023-02-28T11:50:02.918Z,101710.19
2023-02-28T11:52:42.243Z,101716.13
2023-02-28T11:55:17.983Z,101709.91
2023-02-28T11:57:49.986Z,101705.41
2023-02-28T12:00:30.657Z,101698.53
2023-02-28T12:03:00.219Z,101699.53
2023-02-28T12:05:32.959Z,101697.78
2023-02-28T12:07:59.545Z,101697.78
2023-02-28T12:10:28.247Z,101699.53
2023-02-28T12:13:07.014Z,101707.19
2023-02-28T12:15:44.547Z,101706.69
2023-02-28T12:18:23.913Z,101703.94
2023-02-28T12:21:14.182Z,101708.63
2023-02-28T12:23:55.928Z,101706.81
2023-02-28T12:26:36.240Z,101691.44
2023-02-28T12:29:16.903Z,101687.41
2023-02-28T12:31:48.156Z,101695.44
2023-02-28T12:34:19.673Z,101686.91
2023-02-28T12:36:50.693Z,101689.47
2023-02-28T12:39:24.511Z,101690.09
2023-02-28T12:42:00.975Z,101683.56
2023-02-28T12:44:27.742Z,101679.13
2023-02-28T12:46:56.716Z,101688.97
2023-02-28T12:49:28.132Z,101688.69
2023-02-28T12:51:55.047Z,101694.88
2023-02-28T12:54:33.490Z,101698.88
2023-02-28T12:57:09.309Z,101703.19
2023-02-28T12:59:35.758Z,101700.03
2023-02-28T13:02:20.965Z,101696.34
2023-02-28T13:05:05.139Z,101698.78
2023-02-28T13:07:43.507Z,101698.06
2023-02-28T13:10:11.349Z,101703.28
2023-02-28T13:12:48.256Z,101703.81
2023-02-28T13:15:20.188Z,101701.88
2023-02-28T13:17:49.192Z,101695.50
2023-02-28T13:20:16.996Z,101702.28
2023-02-28T13:22:45.185Z,101700.72
2023-02-28T13:25:24.326Z,101697.03
2023-02-28T13:27:57.256Z,101695.28
2023-02-28T13:30:42.880Z,101703.47
2023-02-28T13:33:24.651Z,101695.31
2023-02-28T13:36:22.759Z,101700.75
2023-02-28T13:38:54.435Z,101706.31
2023-02-28T13:41:31.000Z,101699.91
2023-02-28T13:44:04.079Z,101705.03
2023-02-28T13:46:31.477Z,101711.03
2023-02-28T13:49:18.276Z,101708.97
2023-02-28T13:51:47.870Z,101708.00
2023-02-28T13:54:25.376Z,101712.53
2023-02-28T13:57:01.557Z,101712.09
2023-02-28T13:59:35.586Z,101698.38
2023-02-28T14:02:31.803Z,101700.22
2023-02-28T14:05:02.490Z,101705.97
2023-02-28T14:07:43.182Z,101705.56
2023-02-28T14:10:23.126Z,101702.50
2023-02-28T14:13:12.988Z,101705.78
2023-02-28T14:15:45.863Z,101704.97
2023-02-28T14:18:18.343Z,101700.03
2023-02-28T14:20:46.732Z,101698.97
2023-02-28T14:23:19.504Z,101696.94
2023-02-28T14:26:01.245Z,101704.31
2023-02-28T14:28:38.432Z,101705.13
2023-02-28T14:31:18.648Z,101707.00
2023-02-28T14:34:27.632Z,101708.00
2023-02-28T14:36:58.785Z,101712.53
2023-02-28T14:39:40.585Z,101703.91
2023-02-28T14:42:31.669Z,101696.50
2023-02-28T14:45:05.510Z,101702.06
2023-02-28T14:47:38.875Z,101701.25
2023-02-28T14:50:37.777Z,101701.88
2023-02-28T14:53:13.755Z,101697.34
2023-02-28T14:55:55.756Z,101704.09
2023-02-28T14:58:28.102Z,101708.44
2023-02-28T15:01:02.742Z,101704.75
2023-02-28T15:03:52.543Z,101695.66
2023-02-28T15:06:40.201Z,101693.44
2023-02-28T15:09:18.746Z,101691.41
2023-02-28T15:11:51.524Z,101697.56
2023-02-28T15:14:25.270Z,101702.50
2023-02-28T15:17:03.909Z,101699.41
2023-02-28T15:19:36.850Z,101701.44
2023-02-28T15:22:18.108Z,101698.78
2023-02-28T15:24:55.654Z,101704.66
2023-02-28T15:27:33.546Z,101708.78
2023-02-28T15:30:17.393Z,101705.72
2023-02-28T15:32:46.457Z,101708.72
2023-02-28T15:35:33.469Z,101711.56
2023-02-28T15:38:24.483Z,101709.53
2023-02-28T15:41:15.378Z,101706.78
2023-02-28T15:47:22.128Z,101709.75
2023-02-28T15:50:09.736Z,101716.44
2023-02-28T15:52:59.911Z,101721.38
2023-02-28T15:55:29.155Z,101712.19
2023-02-28T15:58:26.236Z,101712.25
2023-02-28T16:01:08.462Z,101715.94
2023-02-28T16:03:47.015Z,101718.09
2023-02-28T16:06:58.622Z,101713.75
2023-02-28T16:12:49.294Z,101715.72
2023-02-28T16:15:27.916Z,101719.31
2023-02-28T16:18:10.425Z,101723.41
2023-02-28T16:20:44.892Z,101720.38
2023-02-28T16:23:14.267Z,101717.59
2023-02-28T16:25:44.932Z,101724.28
2023-02-28T16:28:32.350Z,101723.63
2023-02-28T16:31:01.074Z,101719.97
2023-02-28T16:33:31.085Z,101719.50
2023-02-28T16:36:02.751Z,101735.44
2023-02-28T16:38:30.159Z,101727.25
2023-02-28T16:41:03.144Z,101725.81
2023-02-28T16:43:33.712Z,101727.66
2023-02-28T16:46:12.223Z,101739.84
2023-02-28T16:48:45.728Z,101739.44
2023-02-28T16:51:17.337Z,101741.38
2023-02-28T16:53:48.540Z,101744.50
2023-02-28T16:56:23.652Z,101744.31
2023-02-28T16:58:51.757Z,101746.56
2023-02-28T17:01:32.063Z,101744.19
2023-02-28T17:04:16.302Z,101750.56
2023-02-28T17:07:01.400Z,101750.25
2023-02-28T17:09:43.062Z,101746.69
2023-02-28T17:12:13.472Z,101757.72
2023-02-28T17:14:46.029Z,101751.97
2023-02-28T17:20:15.326Z,101768.75
2023-02-28T17:23:03.890Z,101780.56
2023-02-28T17:25:36.892Z,101777.72
2023-02-28T17:28:15.738Z,101785.06
2023-02-28T17:30:56.550Z,101790.75
2023-02-28T17:33:26.671Z,101781.88
2023-02-28T17:35:55.630Z,101782.91
2023-02-28T17:38:36.228Z,101785.34
2023-02-28T17:41:03.619Z,101789.50
2023-02-28T17:43:39.902Z,101789.09
2023-02-28T17:46:27.133Z,101799.38
2023-02-28T17:48:54.793Z,101797.25
2023-02-28T17:51:25.398Z,101794.16
2023-02-28T17:53:55.544Z,101792.91
2023-02-28T17:56:28.734Z,101796.75
2023-02-28T17:58:57.697Z,101795.50
2023-02-28T18:01:34.501Z,101789.97
2023-02-28T18:04:15.100Z,101790.06
2023-02-28T18:07:03.900Z,101794.50
2023-02-28T18:09:48.653Z,101795.88
2023-02-28T18:12:18.525Z,101791.19
2023-02-28T18:14:48.362Z,101786.63
2023-02-28T18:17:22.566Z,101792.31
2023-02-28T18:20:13.172Z,101789.66
2023-02-28T18:22:54.345Z,101793.78
2023-02-28T18:25:31.249Z,101791.31
2023-02-28T18:28:08.486Z,101795.16
2023-02-28T18:30:39.929Z,101791.69
2023-02-28T18:33:11.870Z,101797.63
2023-02-28T18:35:46.075Z,101788.81
2023-02-28T18:38:15.473Z,101790.84
2023-02-28T18:40:57.944Z,101790.19
2023-02-28T18:43:28.861Z,101787.59
2023-02-28T18:46:01.686Z,101786.53
2023-02-28T18:48:35.524Z,101788.72
2023-02-28T18:51:06.954Z,101792.75
2023-02-28T18:53:40.163Z,101786.97
2023-02-28T18:56:11.693Z,101793.03
2023-02-28T18:58:53.561Z,101786.81
2023-02-28T19:01:22.547Z,101791.22
2023-02-28T19:03:53.121Z,101793.88
2023-02-28T19:06:20.988Z,101789.91
2023-02-28T19:08:55.009Z,101788.81
2023-02-28T19:11:22.486Z,101791.84
2023-02-28T19:13:53.451Z,101790.34
2023-02-28T19:16:32.278Z,101790.34
2023-02-28T19:19:14.832Z,101795.00
2023-02-28T19:21:42.515Z,101795.84
2023-02-28T19:24:15.610Z,101790.00
2023-02-28T19:26:44.796Z,101792.28
2023-02-28T19:29:17.579Z,101793.47
2023-02-28T19:31:54.128Z,101791.00
2023-02-28T19:34:24.745Z,101785.41
2023-02-28T19:36:51.964Z,101785.41
2023-02-28T19:39:22.025Z,101787.59
2023-02-28T19:41:49.509Z,101788.78
2023-02-28T19:44:20.750Z,101793.44
2023-02-28T19:47:14.884Z,101793.81
2023-02-28T19:49:43.045Z,101794.00
2023-02-28T19:52:15.504Z,101794.72
2023-02-28T19:54:42.898Z,101796.56
2023-02-28T19:57:11.933Z,101793.53
2023-02-28T19:59:43.461Z,101791.53
2023-02-28T20:02:14.629Z,101792.88
2023-02-28T20:04:46.932Z,101787.88
2023-02-28T20:07:23.678Z,101789.13
2023-02-28T20:10:02.379Z,101787.13
2023-02-28T20:12:33.594Z,101795.28
2023-02-28T20:15:04.229Z,101780.56
2023-02-28T20:17:35.482Z,101791.19
2023-02-28T20:20:02.617Z,101788.88
2023-02-28T20:22:38.280Z,101793.25
2023-02-28T20:25:07.160Z,101792.94
2023-02-28T20:27:38.424Z,101789.00
2023-02-28T20:30:08.851Z,101789.72
2023-02-28T20:32:49.539Z,101788.78
2023-02-28T20:35:23.202Z,101796.81
2023-02-28T20:37:54.493Z,101789.09
2023-02-28T20:40:30.719Z,101794.44
2023-02-28T20:43:01.410Z,101797.22
2023-02-28T20:45:32.297Z,101796.31
2023-02-28T20:48:02.048Z,101798.28
2023-02-28T20:50:34.308Z,101794.03
2023-02-28T20:53:02.040Z,101790.72
2023-02-28T20:55:29.593Z,101779.88
2023-02-28T20:58:00.206Z,101777.88
2023-02-28T21:00:34.233Z,101781.44
2023-02-28T21:03:07.242Z,101775.78
2023-02-28T21:05:44.830Z,101783.66
2023-02-28T21:08:21.406Z,101771.06
2023-02-28T21:10:56.421Z,101775.25
2023-02-28T21:13:33.309Z,101771.13
2023-02-28T21:16:14.830Z,101778.38
2023-02-28T21:18:42.449Z,101780.84
2023-02-28T21:21:20.070Z,101778.53
2023-02-28T21:24:05.832Z,101775.06
2023-02-28T21:26:55.878Z,101780.38
2023-02-28T21:29:27.760Z,101785.72
2023-02-28T21:32:02.240Z,101793.22
2023-02-28T21:34:35.202Z,101787.13
2023-02-28T21:37:10.213Z,101787.19
2023-02-28T21:39:40.339Z,101792.38
2023-02-28T21:45:32.593Z,101780.34
2023-02-28T21:48:21.313Z,101780.06
2023-02-28T21:51:06.697Z,101773.78
2023-02-28T21:53:40.361Z,101778.50
2023-02-28T21:56:30.593Z,101778.81
2023-02-28T21:59:04.416Z,101774.81
2023-02-28T22:01:43.578Z,101777.59
2023-02-28T22:04:28.567Z,101780.75
2023-02-28T22:07:03.952Z,101782.88
2023-02-28T22:09:37.304Z,101788.97
2023-02-28T22:12:10.301Z,101789.34
2023-02-28T22:14:50.137Z,101787.53
2023-02-28T22:17:39.619Z,101783.28
2023-02-28T22:20:18.097Z,101778.81
2023-02-28T22:23:17.531Z,101778.13
2023-02-28T22:25:47.301Z,101774.00
2023-02-28T22:28:47.914Z,101768.22
2023-02-28T22:31:41.136Z,101782.13
2023-02-28T22:34:22.711Z,101772.56
2023-02-28T22:36:56.105Z,101778.88
2023-02-28T22:39:27.469Z,101775.13
2023-02-28T22:41:57.394Z,101769.34
2023-02-28T22:44:31.810Z,101775.59
2023-02-28T22:47:02.457Z,101776.63
2023-02-28T22:49:35.095Z,101777.13
2023-02-28T22:52:18.059Z,101785.22
2023-02-28T22:54:54.414Z,101776.97
2023-02-28T22:57:24.744Z,101776.47
2023-02-28T23:00:04.951Z,101782.28
2023-02-28T23:02:44.309Z,101777.81
2023-02-28T23:05:28.024Z,101788.25
2023-02-28T23:08:22.640Z,101782.63
2023-02-28T23:10:57.481Z,101790.88
2023-02-28T23:13:36.327Z,101784.13
2023-02-28T23:16:12.586Z,101785.75
2023-02-28T23:18:46.848Z,101790.88
2023-02-28T23:21:21.798Z,101788.22
2023-02-28T23:24:02.146Z,101787.56
2023-02-28T23:26:35.133Z,101799.31
2023-02-28T23:29:05.835Z,101800.63
2023-02-28T23:31:44.849Z,101799.16
2023-02-28T23:34:13.728Z,101805.09
2023-02-28T23:36:46.448Z,101801.59
2023-02-28T23:39:20.295Z,101807.91
2023-02-28T23:41:49.969Z,101814.00
2023-02-28T23:44:20.102Z,101810.69
2023-02-28T23:49:39.705Z,101803.13
2023-02-28T23:52:18.184Z,101804.44
2023-02-28T23:54:45.243Z,101807.88
2023-02-28T23:57:27.451Z,101808.41
2023-02-28T23:59:55.967Z,101804.09
